Time;durP1;ratioP1;P1;durP2;ratioP2;P2;SDS_P1;SDS_P2;PMS_P1;PMS_P2;Temp;Humidity;BMP_temperature;BMP_pressure;BME280_temperature;BME280_humidity;BME280_pressure;Samples;Min_cycle;Max_cycle;Signal;HPM_P1;HPM_P2
2023/12/03 00:01:02;;;;;;;4.72;3.17;;;;;;;;;;5092758;28;20067;-76
2023/12/03 00:03:28;;;;;;;7.07;4.60;;;;;;;;;;5092604;28;20078;-76
2023/12/03 00:05:54;;;;;;;5.57;3.70;;;;;;;;;;5092343;28;20072;-75
2023/12/03 00:08:20;;;;;;;5.32;3.55;;;;;;;;;;5092316;28;20456;-76
2023/12/03 00:10:46;;;;;;;4.68;2.88;;;;;;;;;;5092423;28;20036;-76
2023/12/03 00:13:12;;;;;;;7.90;3.85;;;;;;;;;;5092443;28;20487;-76
2023/12/03 00:15:38;;;;;;;4.78;3.28;;;;;;;;;;5092443;28;20082;-76
2023/12/03 00:18:04;;;;;;;4.70;3.60;;;;;;;;;;5092130;28;20407;-77
2023/12/03 00:20:30;;;;;;;6.18;3.35;;;;;;;;;;5092288;28;20051;-78
2023/12/03 00:22:56;;;;;;;4.38;3.15;;;;;;;;;;5075341;28;20059;-78
2023/12/03 00:25:23;;;;;;;3.75;2.42;;;;;;;;;;5092455;28;20399;-78
2023/12/03 00:27:49;;;;;;;3.33;2.83;;;;;;;;;;5092075;28;20040;-76
2023/12/03 00:30:15;;;;;;;4.10;2.97;;;;;;;;;;5091638;28;20073;-76
2023/12/03 00:32:41;;;;;;;4.22;3.05;;;;;;;;;;5074961;28;20127;-77
2023/12/03 00:35:07;;;;;;;4.57;2.85;;;;;;;;;;5074972;28;20178;-76
2023/12/03 00:37:33;;;;;;;3.72;3.08;;;;;;;;;;5091759;28;20047;-76
2023/12/03 00:39:59;;;;;;;3.33;2.67;;;;;;;;;;5091592;28;20032;-77
2023/12/03 00:42:25;;;;;;;4.47;2.95;;;;;;;;;;5091799;28;20097;-77
2023/12/03 00:44:51;;;;;;;5.72;3.20;;;;;;;;;;5091985;28;20090;-76
2023/12/03 00:47:17;;;;;;;4.55;2.95;;;;;;;;;;5091921;28;20043;-73
2023/12/03 00:49:43;;;;;;;5.35;2.90;;;;;;;;;;5091183;28;20124;-78
2023/12/03 00:52:09;;;;;;;4.47;3.20;;;;;;;;;;5074829;28;20036;-77
2023/12/03 00:54:35;;;;;;;5.30;2.80;;;;;;;;;;5091869;28;20236;-76
2023/12/03 00:57:01;;;;;;;4.95;3.10;;;;;;;;;;5091769;28;20046;-76
2023/12/03 00:59:27;;;;;;;3.67;2.88;;;;;;;;;;5074447;28;20028;-76
2023/12/03 01:01:53;;;;;;;3.42;2.92;;;;;;;;;;5091345;28;20511;-76
2023/12/03 01:04:19;;;;;;;3.20;2.63;;;;;;;;;;5074411;28;20123;-77
2023/12/03 01:06:45;;;;;;;3.45;2.90;;;;;;;;;;5091343;28;20044;-77
2023/12/03 01:09:11;;;;;;;4.03;2.92;;;;;;;;;;5091285;28;20044;-77
2023/12/03 01:11:41;;;;;;;3.75;2.65;;;;;;;;;;5091076;28;20035;-76
2023/12/03 01:14:08;;;;;;;4.82;3.50;;;;;;;;;;5091454;28;20471;-76
2023/12/03 01:16:33;;;;;;;4.60;3.13;;;;;;;;;;5074470;28;20103;-77
2023/12/03 01:18:59;;;;;;;4.47;2.85;;;;;;;;;;5073412;28;20093;-76
2023/12/03 01:21:25;;;;;;;4.60;3.30;;;;;;;;;;5074458;28;20059;-77
2023/12/03 01:23:51;;;;;;;4.43;2.90;;;;;;;;;;5090968;28;20499;-76
2023/12/03 01:26:17;;;;;;;4.50;3.30;;;;;;;;;;5090950;28;20040;-76
2023/12/03 01:28:43;;;;;;;4.28;3.25;;;;;;;;;;5090759;28;20464;-76
2023/12/03 01:31:09;;;;;;;4.82;3.08;;;;;;;;;;5090883;28;20043;-77
2023/12/03 01:33:35;;;;;;;5.20;3.28;;;;;;;;;;5090980;28;20100;-78
2023/12/03 01:36:01;;;;;;;4.10;3.10;;;;;;;;;;5073998;28;20035;-76
2023/12/03 01:38:27;;;;;;;4.22;3.38;;;;;;;;;;5090534;28;20126;-76
2023/12/03 01:40:54;;;;;;;5.53;3.70;;;;;;;;;;5090665;28;20040;-76
2023/12/03 01:43:20;;;;;;;7.38;3.67;;;;;;;;;;5090854;28;20396;-76
2023/12/03 01:45:46;;;;;;;4.40;3.20;;;;;;;;;;5090898;28;20040;-76
2023/12/03 01:48:13;;;;;;;4.57;3.38;;;;;;;;;;5090274;28;20121;-75
2023/12/03 01:50:39;;;;;;;6.18;3.60;;;;;;;;;;5090668;28;20043;-76
2023/12/03 01:53:06;;;;;;;5.30;3.75;;;;;;;;;;5074073;28;20048;-75
2023/12/03 01:55:32;;;;;;;4.40;3.10;;;;;;;;;;5090653;28;20032;-75
2023/12/03 01:57:58;;;;;;;5.35;3.72;;;;;;;;;;5073361;28;20047;-73
2023/12/03 02:00:24;;;;;;;4.60;3.50;;;;;;;;;;5090353;28;20048;-75
2023/12/03 02:02:50;;;;;;;4.90;3.47;;;;;;;;;;5090184;28;20389;-75
2023/12/03 02:05:16;;;;;;;4.75;3.70;;;;;;;;;;5073561;28;20089;-75
2023/12/03 02:07:42;;;;;;;5.63;4.18;;;;;;;;;;5090283;28;20036;-75
2023/12/03 02:10:08;;;;;;;4.72;3.70;;;;;;;;;;5089760;28;20372;-72
2023/12/03 02:12:34;;;;;;;9.80;4.22;;;;;;;;;;5073457;28;20557;-75
2023/12/03 02:15:00;;;;;;;6.82;4.45;;;;;;;;;;5073425;28;20044;-76
2023/12/03 02:17:26;;;;;;;7.78;4.45;;;;;;;;;;5090364;28;20050;-75
2023/12/03 02:19:52;;;;;;;6.78;4.35;;;;;;;;;;5089956;28;20036;-75
2023/12/03 02:22:18;;;;;;;8.27;4.70;;;;;;;;;;5090210;28;20036;-75
2023/12/03 02:24:44;;;;;;;5.88;4.22;;;;;;;;;;5090103;28;20380;-75
2023/12/03 02:27:10;;;;;;;6.63;4.45;;;;;;;;;;5073533;28;20055;-75
2023/12/03 02:29:36;;;;;;;5.95;4.70;;;;;;;;;;5092387;28;20047;-76
2023/12/03 02:32:02;;;;;;;4.85;4.32;;;;;;;;;;5094136;28;20044;-75
2023/12/03 02:34:28;;;;;;;4.95;4.15;;;;;;;;;;5094145;28;20047;-76
2023/12/03 02:36:54;;;;;;;6.57;3.88;;;;;;;;;;5094201;28;20043;-75
2023/12/03 02:39:20;;;;;;;6.93;4.68;;;;;;;;;;5077078;28;20032;-76
2023/12/03 02:41:46;;;;;;;5.03;3.83;;;;;;;;;;5094055;28;20058;-77
2023/12/03 02:44:12;;;;;;;7.85;4.05;;;;;;;;;;5093900;28;20097;-76
2023/12/03 02:46:38;;;;;;;4.88;4.25;;;;;;;;;;5093950;28;20514;-75
2023/12/03 02:49:04;;;;;;;7.32;3.92;;;;;;;;;;5094042;28;20040;-75
2023/12/03 02:51:30;;;;;;;6.05;3.92;;;;;;;;;;5093837;28;20062;-75
2023/12/03 02:53:56;;;;;;;6.18;4.53;;;;;;;;;;5093805;28;20040;-74
2023/12/03 02:56:22;;;;;;;5.63;3.83;;;;;;;;;;5093807;28;20035;-75
2023/12/03 02:58:48;;;;;;;6.25;3.88;;;;;;;;;;5076593;28;20392;-75
2023/12/03 03:01:14;;;;;;;5.30;4.00;;;;;;;;;;5093825;28;20047;-76
2023/12/03 03:03:40;;;;;;;7.88;5.10;;;;;;;;;;5076703;28;20044;-76
2023/12/03 03:06:06;;;;;;;5.55;4.25;;;;;;;;;;5077000;28;20054;-76
2023/12/03 03:08:32;;;;;;;6.00;4.68;;;;;;;;;;5093562;28;20040;-76
2023/12/03 03:10:58;;;;;;;6.28;4.53;;;;;;;;;;5093834;28;20044;-75
2023/12/03 03:13:24;;;;;;;6.13;4.57;;;;;;;;;;5093429;28;20070;-74
2023/12/03 03:15:50;;;;;;;5.78;4.65;;;;;;;;;;5076523;28;20051;-76
2023/12/03 03:18:16;;;;;;;7.85;4.85;;;;;;;;;;5093126;28;20094;-76
2023/12/03 03:20:42;;;;;;;7.28;4.93;;;;;;;;;;5076411;28;20040;-76
2023/12/03 03:23:08;;;;;;;6.50;4.72;;;;;;;;;;5093262;28;20081;-75
2023/12/03 03:25:34;;;;;;;6.65;4.70;;;;;;;;;;5093566;28;20048;-74
2023/12/03 03:28:00;;;;;;;6.85;5.00;;;;;;;;;;5092888;28;20542;-76
2023/12/03 03:30:26;;;;;;;5.60;4.32;;;;;;;;;;5092973;28;20052;-75
2023/12/03 03:32:52;;;;;;;5.43;4.50;;;;;;;;;;5076299;28;20040;-74
2023/12/03 03:35:18;;;;;;;9.70;5.20;;;;;;;;;;5093145;28;20500;-74
2023/12/03 03:37:44;;;;;;;7.70;5.90;;;;;;;;;;5093316;28;20040;-75
2023/12/03 03:40:10;;;;;;;6.85;5.50;;;;;;;;;;5092372;28;20130;-75
2023/12/03 03:42:36;;;;;;;11.95;6.32;;;;;;;;;;5093130;28;20098;-72
2023/12/03 03:45:02;;;;;;;7.90;5.15;;;;;;;;;;5092829;28;20040;-75
2023/12/03 03:47:28;;;;;;;8.95;5.75;;;;;;;;;;5093418;28;20044;-75
2023/12/03 03:49:54;;;;;;;8.68;5.85;;;;;;;;;;5092590;28;20177;-75
2023/12/03 03:52:20;;;;;;;8.50;5.65;;;;;;;;;;5092664;28;20504;-76
2023/12/03 03:54:47;;;;;;;9.50;6.75;;;;;;;;;;5092956;28;20419;-76
2023/12/03 03:57:12;;;;;;;8.60;6.07;;;;;;;;;;5075931;28;20084;-76
2023/12/03 03:59:38;;;;;;;7.95;5.53;;;;;;;;;;5092531;28;20127;-76
2023/12/03 04:02:04;;;;;;;6.75;5.47;;;;;;;;;;5092543;28;20051;-76
2023/12/03 04:04:31;;;;;;;8.27;6.00;;;;;;;;;;5092592;28;20036;-75
2023/12/03 04:06:57;;;;;;;7.10;6.03;;;;;;;;;;5092787;28;20052;-76
2023/12/03 04:09:23;;;;;;;8.07;5.95;;;;;;;;;;5092232;28;20047;-76
2023/12/03 04:11:49;;;;;;;8.15;5.78;;;;;;;;;;5092041;28;20403;-76
2023/12/03 04:14:16;;;;;;;9.57;5.70;;;;;;;;;;5075605;28;20052;-76
2023/12/03 04:16:42;;;;;;;7.88;5.50;;;;;;;;;;5075551;28;20072;-75
2023/12/03 04:19:08;;;;;;;8.43;6.10;;;;;;;;;;5075642;28;20074;-75
2023/12/03 04:21:36;;;;;;;9.07;5.47;;;;;;;;;;5092201;28;20496;-75
2023/12/03 04:24:02;;;;;;;7.22;5.88;;;;;;;;;;5075298;28;20093;-75
2023/12/03 04:26:28;;;;;;;8.63;6.15;;;;;;;;;;5075084;28;20040;-75
2023/12/03 04:28:54;;;;;;;7.53;5.60;;;2.80;35.30;;;;;;5091824;28;20134;-75
2023/12/03 04:31:22;;;;;;;10.50;5.78;;;2.60;31.80;;;;;;5091884;28;20040;-76
2023/12/03 04:33:51;;;;;;;10.40;6.93;;;;;;;;;;5075322;28;20064;-75
2023/12/03 04:36:17;;;;;;;8.27;6.00;;;;;;;;;;5091897;28;20051;-76
2023/12/03 04:38:43;;;;;;;7.22;5.28;;;;;;;;;;5091683;28;20044;-73
2023/12/03 04:41:10;;;;;;;10.57;7.25;;;;;;;;;;5091673;28;20105;-76
2023/12/03 04:43:35;;;;;;;8.98;6.60;;;;;;;;;;5091749;28;20495;-75
2023/12/03 04:46:05;;;;;;;20.40;7.53;;;;;;;;;;5091765;28;20046;-75
2023/12/03 04:48:31;;;;;;;46.40;8.35;;;;;;;;;;5091498;28;20134;-75
2023/12/03 04:50:58;;;;;;;148.35;13.35;;;;;;;;;;5091767;28;20036;-76
2023/12/03 04:53:24;;;;;;;104.90;8.93;;;;;;;;;;5073695;28;20044;-76
2023/12/03 04:55:50;;;;;;;95.80;9.05;;;;;;;;;;5091500;28;20079;-74
2023/12/03 04:58:16;;;;;;;63.58;8.35;;;;;;;;;;5091483;28;20102;-76
2023/12/03 05:00:42;;;;;;;58.90;8.70;;;;;;;;;;5091360;28;20040;-75
2023/12/03 05:03:08;;;;;;;136.75;11.48;;;3.00;40.50;;;;;;5074490;28;20044;-74
2023/12/03 05:05:34;;;;;;;102.88;9.32;;;;;;;;;;5074623;28;20478;-75
2023/12/03 05:08:00;;;;;;;85.20;9.07;;;;;;;;;;5074171;28;20417;-75
2023/12/03 05:10:26;;;;;;;130.68;10.75;;;;;;;;;;5091164;28;20043;-75
2023/12/03 05:12:52;;;;;;;132.30;11.20;;;;;;;;;;5091188;28;20040;-75
2023/12/03 05:15:18;;;;;;;133.65;12.93;;;;;;;;;;5091407;28;20206;-75
2023/12/03 05:17:44;;;;;;;52.00;8.88;;;;;;;;;;5091381;28;20126;-75
2023/12/03 05:20:10;;;;;;;83.25;10.68;;;;;;;;;;5073974;28;20098;-75
2023/12/03 05:22:36;;;;;;;114.07;12.82;;;;;;;;;;5090965;28;20050;-75
2023/12/03 05:25:02;;;;;;;40.35;8.63;;;;;;;;;;5091052;28;20411;-75
2023/12/03 05:27:28;;;;;;;77.53;11.40;;;;;;;;;;5074068;28;20043;-75
2023/12/03 05:29:54;;;;;;;91.32;10.85;;;;;;;;;;5090677;28;20044;-75
2023/12/03 05:32:20;;;;;;;60.28;10.63;;;;;;;;;;5090741;28;20407;-75
2023/12/03 05:34:47;;;;;;;50.88;9.82;;;;;;;;;;5090765;28;20503;-76
2023/12/03 05:37:13;;;;;;;78.90;12.85;;;;;;;;;;5090986;28;20119;-76
2023/12/03 05:39:39;;;;;;;167.75;17.48;;;;;;;;;;5090406;28;20047;-75
2023/12/03 05:42:05;;;;;;;182.13;20.35;;;;;;;;;;5090667;28;20047;-75
2023/12/03 05:44:31;;;;;;;48.92;10.88;;;;;;;;;;5073812;28;20557;-75
2023/12/03 05:46:57;;;;;;;84.57;13.75;;;;;;;;;;5073798;28;20044;-76
2023/12/03 05:49:23;;;;;;;67.95;11.82;;;;;;;;;;5090540;28;20044;-72
2023/12/03 05:51:50;;;;;;;59.92;12.00;;;;;;;;;;5090361;28;20036;-75
2023/12/03 05:54:16;;;;;;;112.15;15.05;;;;;;;;;;5090655;28;20377;-75
2023/12/03 05:56:43;;;;;;;113.40;15.65;;;;;;;;;;5090603;28;20040;-75
2023/12/03 05:59:09;;;;;;;121.47;17.17;;;;;;;;;;5090482;28;20032;-76
2023/12/03 06:01:35;;;;;;;114.90;16.70;;;;;;;;;;5073540;28;20073;-76
2023/12/03 06:04:06;;;;;;;86.97;16.48;;;;;;;;;;5090050;28;20051;-75
2023/12/03 06:06:32;;;;;;;45.10;13.88;;;;;;;;;;5090552;28;20103;-75
2023/12/03 06:08:58;;;;;;;127.65;19.27;;;;;;;;;;5090069;28;20047;-75
2023/12/03 06:11:24;;;;;;;116.95;17.10;;;;;;;;;;5073231;28;20037;-76
2023/12/03 06:13:50;;;;;;;60.38;15.30;;;;;;;;;;5090148;28;20502;-75
2023/12/03 06:16:16;;;;;;;78.15;17.50;;;;;;;;;;5090213;28;20067;-75
2023/12/03 06:18:43;;;;;;;153.25;22.83;;;;;;;;;;5090087;28;20550;-76
2023/12/03 06:21:09;;;;;;;86.30;18.77;;;;;;;;;;5090232;28;20495;-75
2023/12/03 06:23:35;;;;;;;126.72;20.73;;;;;;;;;;5073577;28;20395;-76
2023/12/03 06:26:01;;;;;;;91.80;19.73;;;;;;;;;;5073270;28;20042;-76
2023/12/03 06:28:27;;;;;;;118.05;20.17;;;;;;;;;;5089949;28;20048;-72
2023/12/03 06:30:53;;;;;;;314.33;37.70;;;;;;;;;;5073160;28;20089;-75
2023/12/03 06:33:19;;;;;;;177.38;27.58;;;;;;;;;;5090026;28;20495;-75
2023/12/03 06:35:45;;;;;;;201.82;26.98;;;;;;;;;;5090507;28;20047;-76
2023/12/03 06:38:12;;;;;;;105.78;19.08;;;;;;;;;;5089746;28;20044;-75
2023/12/03 06:40:38;;;;;;;240.30;34.50;;;;;;;;;;5090354;28;20395;-75
2023/12/03 06:43:04;;;;;;;68.60;18.85;;;;;;;;;;5090148;28;20043;-75
2023/12/03 06:45:30;;;;;;;50.88;16.67;;;;;;;;;;5073373;28;20048;-75
2023/12/03 06:47:56;;;;;;;56.58;20.08;;;;;;;;;;5089820;28;20313;-75
2023/12/03 06:50:22;;;;;;;49.25;17.77;;;;;;;;;;5089511;28;20503;-75
2023/12/03 06:52:48;;;;;;;81.32;19.60;;;;;;;;;;5089854;28;20044;-75
2023/12/03 06:55:14;;;;;;;118.97;24.42;;;;;;;;;;5089913;28;20580;-76
2023/12/03 06:57:40;;;;;;;96.35;24.35;;;;;;;;;;5089767;28;20036;-75
2023/12/03 07:00:06;;;;;;;50.13;19.27;;;;;;;;;;5089566;28;20044;-75
2023/12/03 07:02:33;;;;;;;49.30;18.70;;;;;;;;;;5090072;28;20504;-75
2023/12/03 07:04:59;;;;;;;59.08;20.48;;;;;;;;;;5090216;28;20445;-75
2023/12/03 07:07:25;;;;;;;55.92;18.58;;;;;;;;;;5089735;28;20093;-74
2023/12/03 07:09:51;;;;;;;52.83;19.98;;;;;;;;;;5089281;28;20052;-75
2023/12/03 07:12:17;;;;;;;48.95;19.73;;;;;;;;;;5089784;28;20044;-75
2023/12/03 07:14:43;;;;;;;71.22;22.48;;;;;;;;;;5089679;28;20051;-75
2023/12/03 07:17:09;;;;;;;52.92;18.33;;;;;;;;;;5092803;28;20035;-75
2023/12/03 07:19:35;;;;;;;56.20;20.13;;;;;;;;;;5076181;28;20093;-75
2023/12/03 07:22:01;;;;;;;73.80;21.20;;;;;;;;;;5093582;28;20442;-75
2023/12/03 07:24:27;;;;;;;140.18;30.40;;;;;;;;;;5093401;28;20044;-75
2023/12/03 07:26:53;;;;;;;81.03;20.75;;;;;;;;;;5076383;28;20075;-75
2023/12/03 07:29:19;;;;;;;114.07;23.25;;;;;;;;;;5092990;28;20096;-75
2023/12/03 07:31:45;;;;;;;72.10;22.88;;;;;;;;;;5092963;28;20042;-74
2023/12/03 07:34:11;;;;;;;71.30;21.05;;;;;;;;;;5076550;28;20047;-74
2023/12/03 07:36:37;;;;;;;84.18;22.65;;;;;;;;;;5093274;28;20036;-74
2023/12/03 07:39:03;;;;;;;116.72;28.13;;;;;;;;;;5093175;28;20055;-75
2023/12/03 07:41:30;;;;;;;76.28;21.55;;;4.70;62.60;;;;;;5093179;28;20047;-75
2023/12/03 07:43:56;;;;;;;69.82;21.08;;;;;;;;;;5092875;28;20070;-74
2023/12/03 07:46:22;;;;;;;73.18;21.52;;;;;;;;;;5092803;28;20499;-75
2023/12/03 07:48:48;;;;;;;58.90;20.25;;;;;;;;;;5092759;28;20046;-75
2023/12/03 07:51:14;;;;;;;64.15;20.63;;;;;;;;;;5092563;28;20036;-75
2023/12/03 07:53:40;;;;;;;56.42;21.02;;;;;;;;;;5092938;28;20516;-74
2023/12/03 07:56:07;;;;;;;52.05;20.23;;;;;;;;;;5093106;28;20340;-74
2023/12/03 07:58:34;;;;;;;61.30;21.13;;;;;;;;;;5092456;28;20036;-75
2023/12/03 08:01:00;;;;;;;60.28;20.80;;;;;;;;;;5092577;28;20044;-74
2023/12/03 08:03:26;;;;;;;73.28;22.83;;;;;;;;;;5092864;28;20093;-75
2023/12/03 08:05:52;;;;;;;67.93;21.23;;;;;;;;;;5075732;28;20579;-74
2023/12/03 08:08:18;;;;;;;68.18;23.05;;;;;;;;;;5075478;28;20527;-74
2023/12/03 08:10:44;;;;;;;45.10;18.33;;;;;;;;;;5092277;28;20074;-74
2023/12/03 08:13:10;;;;;;;55.85;20.55;;;;;;;;;;5092456;28;20415;-75
2023/12/03 08:15:36;;;;;;;56.42;20.83;;;;;;;;;;5075766;28;20398;-75
2023/12/03 08:18:03;;;;;;;54.22;20.00;;;;;;;;;;5092528;28;20119;-74
2023/12/03 08:20:29;;;;;;;65.13;20.85;;;;;;;;;;5075504;28;20122;-74
2023/12/03 08:22:55;;;;;;;65.63;21.27;;;;;;;;;;5092311;28;20043;-75
2023/12/03 08:25:20;;;;;;;67.13;21.98;;;;;;;;;;5092563;28;20165;-75
2023/12/03 08:27:46;;;;;;;69.38;24.25;;;;;;;;;;5092026;28;20040;-73
2023/12/03 08:30:13;;;;;;;66.05;23.52;;;;;;;;;;5074927;28;20040;-75
2023/12/03 08:32:38;;;;;;;68.10;24.27;;;4.80;66.00;;;;;;5075206;28;20032;-74
2023/12/03 08:35:05;;;;;;;65.40;24.92;;;;;;;;;;5092117;28;20047;-75
2023/12/03 08:37:31;;;;;;;58.80;22.77;;;;;;;;;;5091935;28;20085;-75
2023/12/03 08:39:59;;;;;;;67.60;25.15;;;4.80;63.70;;;;;;5091745;28;20040;-75
2023/12/03 08:42:25;;;;;;;79.80;28.52;;;;;;;;;;5091982;28;20044;-75
2023/12/03 08:44:50;;;;;;;82.45;29.02;;;;;;;;;;5091768;28;20122;-74
2023/12/03 08:47:17;;;;;;;71.28;28.70;;;;;;;;;;5092138;28;20180;-75
2023/12/03 08:49:43;;;;;;;64.57;26.48;;;;;;;;;;5091517;28;20128;-75
2023/12/03 08:52:09;;;;;;;68.30;27.02;;;;;;;;;;5091757;28;20127;-75
2023/12/03 08:54:35;;;;;;;70.97;29.10;;;;;;;;;;5091645;28;20046;-75
2023/12/03 08:57:02;;;;;;;66.55;26.65;;;;;;;;;;5091691;28;20040;-75
2023/12/03 08:59:28;;;;;;;67.57;27.70;;;;;;;;;;5091565;28;20044;-75
2023/12/03 09:01:54;;;;;;;74.32;30.10;;;;;;;;;;5091533;28;20116;-75
2023/12/03 09:04:20;;;;;;;80.25;31.35;;;;;;;;;;5091509;28;20072;-75
2023/12/03 09:06:46;;;;;;;67.07;28.80;;;;;;;;;;5091409;28;20417;-75
2023/12/03 09:09:12;;;;;;;70.47;30.10;;;;;;;;;;5091164;28;20084;-75
2023/12/03 09:11:43;;;;;;;67.15;30.85;;;;;;;;;;5091929;28;20036;-75
2023/12/03 09:14:09;;;;;;;61.55;28.45;;;;;;;;;;5074360;28;20093;-75
2023/12/03 09:16:35;;;;;;;69.88;30.63;;;;;;;;;;5091390;28;20036;-75
2023/12/03 09:19:01;;;;;;;70.60;31.35;;;;;;;;;;5074188;28;20083;-75
2023/12/03 09:21:27;;;;;;;68.20;30.77;;;;;;;;;;5091097;28;20499;-75
2023/12/03 09:23:54;;;;;;;67.25;30.98;;;;;;;;;;5091114;28;20043;-75
2023/12/03 09:26:20;;;;;;;63.65;30.50;;;;;;;;;;5091208;28;20503;-75
2023/12/03 09:28:46;;;;;;;67.38;30.30;;;;;;;;;;5091102;28;20522;-75
2023/12/03 09:31:12;;;;;;;68.03;33.15;;;;;;;;;;5091108;28;20114;-75
2023/12/03 09:33:38;;;;;;;69.68;32.78;;;;;;;;;;5074326;28;20434;-75
2023/12/03 09:36:04;;;;;;;65.05;30.17;;;;;;;;;;5091114;28;20054;-76
2023/12/03 09:38:30;;;;;;;65.93;30.77;;;;;;;;;;5090187;28;20123;-75
2023/12/03 09:40:59;;;;;;;57.78;30.23;;;5.20;54.40;;;;;;5090724;28;20048;-74
2023/12/03 09:43:27;;;;;;;64.93;32.08;;;;;;;;;;5091095;28;20047;-75
2023/12/03 09:45:56;;;;;;;61.33;31.60;;;;;;;;;;5090755;28;20040;-75
2023/12/03 09:48:24;;;;;;;64.07;30.95;;;5.20;52.60;;;;;;5090539;28;20082;-75
2023/12/03 09:50:52;;;;;;;58.38;30.25;;;5.40;50.70;;;;;;5073710;28;20040;-75
2023/12/03 09:53:21;;;;;;;58.17;29.52;;;5.20;50.90;;;;;;5073837;28;20044;-75
2023/12/03 09:55:48;;;;;;;57.78;29.23;;;;;;;;;;5090818;28;20445;-75
2023/12/03 09:58:15;;;;;;;56.85;28.30;;;5.20;48.60;;;;;;5090448;28;20089;-76
2023/12/03 10:00:41;;;;;;;57.60;30.27;;;;;;;;;;5074016;28;20447;-75
2023/12/03 10:03:08;;;;;;;54.78;29.42;;;;;;;;;;5090511;28;20039;-75
2023/12/03 10:05:34;;;;;;;52.55;27.45;;;;;;;;;;5090799;28;20062;-75
2023/12/03 10:08:02;;;;;;;57.53;31.27;;;;;;;;;;5090335;28;20040;-73
2023/12/03 10:10:32;;;;;;;54.33;29.08;;;5.40;46.50;;;;;;5090158;28;20087;-75
2023/12/03 10:12:59;;;;;;;56.75;29.77;;;5.30;45.70;;;;;;5090509;28;20051;-75
2023/12/03 10:15:25;;;;;;;53.15;28.10;;;;;;;;;;5090439;28;20036;-75
2023/12/03 10:17:51;;;;;;;49.63;27.60;;;;;;;;;;5073579;28;20036;-75
2023/12/03 10:20:21;;;;;;;52.85;28.27;;;;;;;;;;5090033;28;20036;-75
2023/12/03 10:22:47;;;;;;;55.10;28.58;;;;;;;;;;5090457;28;20048;-75
2023/12/03 10:25:25;;;;;;;54.28;28.80;;;5.50;40.80;;;;;;5090291;28;20487;-75
2023/12/03 10:28:03;;;;;;;52.50;27.05;;;5.80;40.50;;;;;;5090260;28;20075;-75
2023/12/03 10:30:29;;;;;;;45.80;25.95;;;;;;;;;;5090511;28;20032;-75
2023/12/03 10:32:55;;;;;;;51.85;28.20;;;;;;;;;;5090229;28;20047;-75
2023/12/03 10:35:21;;;;;;;51.15;26.65;;;;;;;;;;5090421;28;20044;-75
2023/12/03 10:37:48;;;;;;;49.10;26.20;;;;;;;;;;5073396;28;20046;-73
2023/12/03 10:40:14;;;;;;;48.47;27.55;;;;;;;;;;5090007;28;20048;-75
2023/12/03 10:42:40;;;;;;;47.92;25.80;;;;;;;;;;5090476;28;20097;-76
2023/12/03 10:45:10;;;;;;;50.45;26.75;;;5.50;31.70;;;;;;5090214;28;20279;-76
2023/12/03 10:47:37;;;;;;;43.65;25.25;;;;;;;;;;5073230;28;20606;-73
2023/12/03 10:50:05;;;;;;;47.45;26.27;;;;;;;;;;5090089;28;20040;-75
2023/12/03 10:52:35;;;;;;;43.72;25.00;;;5.70;28.00;;;;;;5094103;28;20096;-75
2023/12/03 10:55:02;;;;;;;49.38;26.77;;;5.70;29.50;;;;;;5094018;28;20040;-75
2023/12/03 10:57:30;;;;;;;46.70;26.17;;;5.60;26.30;;;;;;5094034;28;20036;-75
2023/12/03 11:00:17;;;;;;;43.00;25.52;;;5.60;27.10;;;;;;5093696;28;20070;-75
2023/12/03 11:02:47;;;;;;;46.45;25.05;;;;;;;;;;5093915;28;20051;-75
2023/12/03 11:05:33;;;;;;;43.03;24.92;;;;;;;;;;5093885;28;20047;-75
2023/12/03 11:08:02;;;;;;;43.20;24.70;;;5.60;25.20;;;;;;5077047;28;20135;-73
2023/12/03 11:10:29;;;;;;;43.08;23.17;;;5.60;24.40;;;;;;5093387;28;20040;-75
2023/12/03 11:12:56;;;;;;;40.13;21.98;;;;;;;;;;5093679;28;20503;-73
2023/12/03 11:15:23;;;;;;;38.97;22.70;;;;;;;;;;5093968;28;20042;-75
2023/12/03 11:17:50;;;;;;;41.45;23.30;;;5.50;21.80;;;;;;5077083;28;20097;-75
2023/12/03 11:20:23;;;;;;;37.42;22.27;;;5.60;22.00;;;;;;5093690;28;20384;-75
2023/12/03 11:22:56;;;;;;;39.50;20.80;;;;;;;;;;5077259;28;20047;-75
2023/12/03 11:25:33;;;;;;;37.75;21.10;;;;;;;;;;5076857;28;20140;-75
2023/12/03 11:27:59;;;;;;;39.22;20.98;;;;;;;;;;5076300;28;20048;-73
2023/12/03 11:30:40;;;;;;;39.15;21.48;;;5.50;23.40;;;;;;5093634;28;20044;-75
2023/12/03 11:33:13;;;;;;;37.53;21.00;;;;;;;;;;5093253;28;20040;-75
2023/12/03 11:35:40;;;;;;;42.75;23.08;;;5.70;23.20;;;;;;5093487;28;20411;-75
2023/12/03 11:38:21;;;;;;;43.55;21.88;;;;;;;;;;5076175;28;20036;-75
2023/12/03 11:40:48;;;;;;;43.03;23.95;;;;;;;;;;5093106;28;20039;-75
2023/12/03 11:43:28;;;;;;;50.00;24.58;;;5.40;22.30;;;;;;5093360;28;20552;-75
2023/12/03 11:45:54;;;;;;;44.28;22.02;;;;;;;;;;5076195;28;20055;-75
2023/12/03 11:48:21;;;;;;;41.10;22.63;;;;;;;;;;5092692;28;20392;-75
2023/12/03 11:50:49;;;;;;;38.00;21.20;;;5.80;23.20;;;;;;5092945;28;20127;-75
2023/12/03 11:53:15;;;;;;;45.17;23.17;;;;;;;;;;5092940;28;20051;-75
2023/12/03 11:55:45;;;;;;;47.50;23.02;;;;;;;;;;5092890;28;20036;-75
2023/12/03 11:58:11;;;;;;;41.75;22.75;;;;;;;;;;5075760;28;20036;-76
2023/12/03 12:00:38;;;;;;;42.42;22.55;;;5.70;21.10;;;;;;5092628;28;20086;-75
2023/12/03 12:03:05;;;;;;;38.20;21.45;;;;;;;;;;5075386;28;20033;-75
2023/12/03 12:05:32;;;;;;;44.97;21.50;;;;;;;;;;5092965;28;20372;-74
2023/12/03 12:07:58;;;;;;;44.38;23.20;;;;;;;;;;5092697;28;20047;-75
2023/12/03 12:10:24;;;;;;;43.90;23.27;;;;;;;;;;5075387;28;20084;-76
2023/12/03 12:12:50;;;;;;;39.97;22.38;;;;;;;;;;5092533;28;20043;-75
2023/12/03 12:15:16;;;;;;;40.95;21.40;;;;;;;;;;5092491;28;20047;-76
2023/12/03 12:17:42;;;;;;;38.55;20.67;;;;;;;;;;5075596;28;20127;-76
2023/12/03 12:20:09;;;;;;;41.40;21.80;;;;;;;;;;5092108;28;20169;-75
2023/12/03 12:22:35;;;;;;;41.38;21.23;;;;;;;;;;5092486;28;20189;-75
2023/12/03 12:25:01;;;;;;;46.25;22.10;;;6.00;13.00;;;;;;5092354;28;20044;-76
2023/12/03 12:27:28;;;;;;;40.58;21.40;;;;;;;;;;5092491;28;20386;-76
2023/12/03 12:29:54;;;;;;;39.33;21.77;;;;;;;;;;5091900;28;20047;-75
2023/12/03 12:32:20;;;;;;;45.80;22.33;;;;;;;;;;5075200;28;20465;-75
2023/12/03 12:34:46;;;;;;;39.88;21.45;;;;;;;;;;5092086;28;20047;-75
2023/12/03 12:37:12;;;;;;;36.83;20.88;;;;;;;;;;5092288;28;20035;-75
2023/12/03 12:39:38;;;;;;;38.63;21.00;;;;;;;;;;5091767;28;20075;-75
2023/12/03 12:42:04;;;;;;;39.53;21.35;;;;;;;;;;5092016;28;20039;-75
2023/12/03 12:44:44;;;;;;;45.40;23.05;;;;;;;;;;5075169;28;20612;-75
2023/12/03 12:47:10;;;;;;;46.50;25.05;;;6.10;6.30;;;;;;5092061;28;20456;-76
2023/12/03 12:49:37;;;;;;;40.92;22.50;;;;;;;;;;5091572;28;20048;-76
2023/12/03 12:52:10;;;;;;;42.30;22.20;;;;;;;;;;5091851;28;20389;-76
2023/12/03 12:54:46;;;;;;;43.60;22.67;;;;;;;;;;5074860;28;20040;-76
2023/12/03 12:57:12;;;;;;;45.03;22.90;;;;;;;;;;5091719;28;20071;-76
2023/12/03 12:59:38;;;;;;;41.60;21.88;;;;;;;;;;5091398;28;20589;-76
2023/12/03 13:02:04;;;;;;;48.72;23.65;;;6.10;5.30;;;;;;5091579;28;20123;-76
2023/12/03 13:04:30;;;;;;;45.05;23.80;;;;;;;;;;5074628;28;20126;-76
2023/12/03 13:06:56;;;;;;;41.88;22.05;;;;;;;;;;5091784;28;20102;-77
2023/12/03 13:09:22;;;;;;;42.85;22.92;;;;;;;;;;5091508;28;20044;-76
2023/12/03 13:11:48;;;;;;;48.40;23.25;;;;;;;;;;5091410;28;20052;-75
2023/12/03 13:14:14;;;;;;;45.95;23.80;;;;;;;;;;5090627;28;20397;-74
2023/12/03 13:16:41;;;;;;;47.50;24.52;;;;;;;;;;5074729;28;20040;-76
2023/12/03 13:19:07;;;;;;;47.08;23.15;;;;;;;;;;5074488;28;20411;-76
2023/12/03 13:21:33;;;;;;;47.20;22.77;;;;;;;;;;5091223;28;20135;-75
2023/12/03 13:23:59;;;;;;;45.58;23.13;;;;;;;;;;5091041;28;20606;-77
2023/12/03 13:26:25;;;;;;;44.83;23.05;;;;;;;;;;5091539;28;20228;-78
2023/12/03 13:28:51;;;;;;;46.13;22.83;;;;;;;;;;5091386;28;20048;-77
2023/12/03 13:31:17;;;;;;;46.63;23.27;;;;;;;;;;5074620;28;20099;-76
2023/12/03 13:33:43;;;;;;;39.78;22.33;;;;;;;;;;5091346;28;20484;-77
2023/12/03 13:36:09;;;;;;;40.75;20.55;;;5.70;5.70;;;;;;5091379;28;20032;-76
2023/12/03 13:38:35;;;;;;;34.53;19.85;;;;;;;;;;5074155;28;20510;-77
2023/12/03 13:41:01;;;;;;;32.30;17.92;;;;;;;;;;5090858;28;20036;-74
2023/12/03 13:43:28;;;;;;;31.90;17.90;;;;;;;;;;5090825;28;20055;-77
2023/12/03 13:45:54;;;;;;;37.80;17.52;;;;;;;;;;5090814;28;20097;-77
2023/12/03 13:48:20;;;;;;;33.90;17.75;;;;;;;;;;5090722;28;20047;-77
2023/12/03 13:50:46;;;;;;;33.92;17.73;;;;;;;;;;5090596;28;20173;-77
2023/12/03 13:53:14;;;;;;;33.63;16.85;;;;;;;;;;5090509;28;20509;-77
2023/12/03 13:55:40;;;;;;;30.73;16.85;;;;;;;;;;5073901;28;20040;-77
2023/12/03 13:58:06;;;;;;;32.80;17.05;;;;;;;;;;5090496;28;20522;-75
2023/12/03 14:00:32;;;;;;;30.25;17.35;;;;;;;;;;5090451;28;20149;-77
2023/12/03 14:02:58;;;;;;;34.67;18.58;;;;;;;;;;5090600;28;20123;-77
2023/12/03 14:05:24;;;;;;;31.02;16.20;;;;;;;;;;5074019;28;20145;-77
2023/12/03 14:07:52;;;;;;;31.58;16.88;;;;;;;;;;5090407;28;20042;-76
2023/12/03 14:10:18;;;;;;;29.85;15.68;;;;;;;;;;5073225;28;20072;-77